SNEAK12 -KPWM
Flight info
| Callsign | SNEAK12 |
|---|---|
| Flight time | N/A |
| Altitude | VFR/ |
| Route | |
| Aircraft | V22/M-VGD/C |
Departure
| Time | N/A |
|---|---|
| Airport | - |
Arrival
| Time | 2026-05-08 02:24 |
|---|---|
| Airport | Portland International Jetport (KPWM) |
| Time | Latitude | Longitude | Altitude | Speed | Heading |
|---|---|---|---|---|---|
| 2026-05-08 02:11 | 43.59644 | -70.21768 | 3073 ft | 48 kts | 148° |
| 2026-05-08 02:11 | 43.59288 | -70.20663 | 1999 ft | 190 kts | 99° |
| 2026-05-08 02:11 | 43.59804 | -70.18747 | 2193 ft | 243 kts | 59° |
| 2026-05-08 02:12 | 43.60483 | -70.17438 | 1031 ft | 266 kts | 73° |
| 2026-05-08 02:12 | 43.61456 | -70.15130 | 3832 ft | 216 kts | 46° |
| 2026-05-08 02:12 | 43.62389 | -70.14565 | 4848 ft | 229 kts | 4° |
| 2026-05-08 02:12 | 43.63647 | -70.15670 | 5359 ft | 218 kts | 288° |
| 2026-05-08 02:13 | 43.63500 | -70.17421 | 5374 ft | 156 kts | 257° |
| 2026-05-08 02:13 | 43.63429 | -70.18654 | 5473 ft | 122 kts | 285° |
| 2026-05-08 02:13 | 43.63739 | -70.19910 | 5177 ft | 144 kts | 289° |
| 2026-05-08 02:13 | 43.64017 | -70.21236 | 4934 ft | 143 kts | 278° |
| 2026-05-08 02:14 | 43.64127 | -70.22599 | 3478 ft | 134 kts | 274° |
| 2026-05-08 02:14 | 43.64172 | -70.23532 | 2748 ft | 58 kts | 274° |
| 2026-05-08 02:14 | 43.64217 | -70.24276 | 1801 ft | 114 kts | 274° |
| 2026-05-08 02:14 | 43.64218 | -70.25671 | 1442 ft | 165 kts | 269° |
| 2026-05-08 02:15 | 43.64210 | -70.27047 | 1035 ft | 112 kts | 270° |
| 2026-05-08 02:15 | 43.64246 | -70.27910 | 674 ft | 91 kts | 275° |
| 2026-05-08 02:15 | 43.64300 | -70.28733 | 429 ft | 83 kts | 276° |
| 2026-05-08 02:15 | 43.64367 | -70.29453 | 199 ft | 71 kts | 277° |
| 2026-05-08 02:16 | 43.64415 | -70.30106 | 50 ft | 62 kts | 276° |
| 2026-05-08 02:16 | 43.64455 | -70.30675 | 264 ft | 76 kts | 275° |
| 2026-05-08 02:16 | 43.64518 | -70.31682 | 863 ft | 133 kts | 274° |
| 2026-05-08 02:16 | 43.64597 | -70.33157 | 1504 ft | 157 kts | 274° |
| 2026-05-08 02:17 | 43.64235 | -70.34280 | 1538 ft | 130 kts | 212° |
| 2026-05-08 02:17 | 43.63226 | -70.34150 | 1338 ft | 168 kts | 142° |
| 2026-05-08 02:17 | 43.62855 | -70.32682 | 1395 ft | 167 kts | 97° |
| 2026-05-08 02:17 | 43.62684 | -70.31088 | 1458 ft | 168 kts | 99° |
| 2026-05-08 02:18 | 43.62513 | -70.29589 | 1556 ft | 138 kts | 98° |
| 2026-05-08 02:18 | 43.62388 | -70.28439 | 1282 ft | 115 kts | 98° |
| 2026-05-08 02:18 | 43.62255 | -70.27290 | 1218 ft | 125 kts | 100° |
| 2026-05-08 02:18 | 43.62096 | -70.26115 | 1566 ft | 124 kts | 102° |
| 2026-05-08 02:19 | 43.61918 | -70.25014 | 1818 ft | 114 kts | 103° |
| 2026-05-08 02:19 | 43.61756 | -70.23946 | 1952 ft | 114 kts | 102° |
| 2026-05-08 02:19 | 43.61228 | -70.22913 | 2135 ft | 163 kts | 126° |
| 2026-05-08 02:19 | 43.61594 | -70.21608 | 2356 ft | 171 kts | 13° |
| 2026-05-08 02:20 | 43.62037 | -70.22726 | 2857 ft | 176 kts | 235° |
| 2026-05-08 02:20 | 43.61579 | -70.21968 | 3181 ft | 176 kts | 39° |
| 2026-05-08 02:20 | 43.61907 | -70.22584 | 3404 ft | 177 kts | 189° |
| 2026-05-08 02:20 | 43.62018 | -70.22002 | 3520 ft | 170 kts | 298° |
| 2026-05-08 02:21 | 43.61209 | -70.22450 | 3839 ft | 180 kts | 139° |
| 2026-05-08 02:21 | 43.61393 | -70.21032 | 4722 ft | 175 kts | 42° |
| 2026-05-08 02:21 | 43.62501 | -70.20319 | 5040 ft | 177 kts | 20° |
| 2026-05-08 02:21 | 43.63738 | -70.20199 | 3398 ft | 169 kts | 332° |
| 2026-05-08 02:22 | 43.63990 | -70.21731 | 2431 ft | 162 kts | 238° |
| 2026-05-08 02:22 | 43.63092 | -70.22526 | 1878 ft | 192 kts | 268° |
| 2026-05-08 02:22 | 43.63676 | -70.24027 | 1271 ft | 156 kts | 303° |
| 2026-05-08 02:22 | 43.63984 | -70.25147 | 998 ft | 96 kts | 281° |
| 2026-05-08 02:23 | 43.64101 | -70.25981 | 753 ft | 103 kts | 282° |
| 2026-05-08 02:23 | 43.64191 | -70.26896 | 547 ft | 94 kts | 274° |
| 2026-05-08 02:23 | 43.64250 | -70.27820 | 413 ft | 95 kts | 275° |
| 2026-05-08 02:23 | 43.64308 | -70.28717 | 254 ft | 94 kts | 275° |
| 2026-05-08 02:24 | 43.64375 | -70.29552 | 143 ft | 76 kts | 276° |
| 2026-05-08 02:24 | 43.64411 | -70.30155 | 58 ft | 51 kts | 276° |
| 2026-05-08 02:24 | 43.64459 | -70.30585 | 56 ft | 32 kts | 274° |
| 2026-05-08 02:24 | 43.64593 | -70.30686 | 126 ft | 25 kts | 11° |
| 2026-05-08 02:25 | 43.64643 | -70.30676 | 152 ft | 11 kts | 0° |
| 2026-05-08 02:25 | 43.64868 | -70.30691 | 120 ft | 40 kts | 355° |
| 2026-05-08 02:25 | 43.65030 | -70.30799 | 66 ft | 0 kts | 331° |
| 2026-05-08 02:25 | 43.65093 | -70.30831 | 89 ft | 30 kts | 350° |
| 2026-05-08 02:26 | 43.65181 | -70.30852 | 65 ft | 1 kts | 359° |
| 2026-05-08 02:26 | 43.65210 | -70.30862 | 53 ft | 1 kts | 358° |
| 2026-05-08 02:26 | 43.65211 | -70.30862 | 53 ft | 0 kts | 358° |